LFST/SXB METAR and TAF weather

Enter ICAO airport designator
Station Type Date Time Source
LFST METAR 2019/12/05 23:00 UTC NOAA

LFST 052300Z AUTO VRB03KT 0350 R23/0375N R05/0400N FZFG VV/// M03/M03 Q1023 NOSIG


Station Type Date Time Source
LFST Decoded METAR 2019/12/05 23:00 UTC NOAA

Strasbourg, France (LFST) 48-33N 007-38E 154M
Dec 05, 2019 - 06:00 PM EST / 2019.12.05 2300 UTC
Wind: Variable at 3 MPH (3 KT):0
Visibility: less than 1 mile:0
Sky conditions: obscured
Weather: freezing fog
Temperature: 26 F (-3 C)
Dew Point: 26 F (-3 C)
Relative Humidity: 100%
Pressure (altimeter): 30.21 in. Hg (1023 hPa)
ob: LFST 052300Z AUTO VRB03KT 0350 R23/0375N R05/0400N FZFG VV/// M03/M03 Q1023 NOSIG
cycle: 23

Station Type Date Time Source
LFST TAF 2019/12/05 18:21 UTC NOAA

TAF LFST 051700Z 0518/0618 19004KT 0500 FZFG VV/// PROB40 0518/0603 0250
BECMG 0606/0608 2000 BR BKN002
BECMG 0608/0610 9999 NSW FEW006
BECMG 0610/0612 CAVOK

Example: see airport list